createdAt,value
2022-12-08T00:04:00.789Z,50.46
2022-12-08T00:09:13.045Z,50.56
2022-12-08T00:14:06.813Z,50.28
2022-12-08T00:19:00.787Z,50.36
2022-12-08T00:23:56.821Z,50.47
2022-12-08T00:28:49.982Z,50.41
2022-12-08T00:33:42.647Z,50.41
2022-12-08T00:38:37.184Z,50.43
2022-12-08T00:43:30.657Z,50.44
2022-12-08T00:48:24.751Z,50.47
2022-12-08T00:53:17.373Z,50.26
2022-12-08T00:58:10.927Z,50.42
2022-12-08T01:03:04.723Z,50.44
2022-12-08T01:07:59.037Z,50.43
2022-12-08T01:12:52.611Z,50.22
2022-12-08T01:17:46.642Z,50.32
2022-12-08T01:22:39.946Z,50.30
2022-12-08T01:27:33.727Z,50.28
2022-12-08T01:32:27.762Z,50.33
2022-12-08T01:37:21.550Z,50.40
2022-12-08T01:42:35.408Z,50.25
2022-12-08T01:47:41.694Z,50.33
2022-12-08T01:52:43.582Z,50.23
2022-12-08T01:57:47.641Z,50.35
2022-12-08T02:02:53.023Z,50.23
2022-12-08T02:07:49.158Z,50.46
2022-12-08T02:12:44.635Z,50.18
2022-12-08T02:17:43.823Z,50.31
2022-12-08T02:22:48.853Z,50.46
2022-12-08T02:28:12.603Z,50.23
2022-12-08T02:33:33.294Z,50.25
2022-12-08T02:39:05.422Z,50.03
2022-12-08T02:44:00.915Z,50.12
2022-12-08T02:48:56.174Z,50.23
2022-12-08T02:53:49.938Z,50.13
2022-12-08T02:59:02.930Z,50.20
2022-12-08T03:04:20.687Z,50.19
2022-12-08T03:09:32.858Z,50.20
2022-12-08T03:14:26.908Z,50.13
2022-12-08T03:19:25.012Z,50.00
2022-12-08T03:24:19.343Z,50.16
2022-12-08T03:29:14.261Z,50.31
2022-12-08T03:34:11.662Z,50.32
2022-12-08T03:39:05.198Z,50.26
2022-12-08T03:44:00.411Z,50.26
2022-12-08T03:48:53.571Z,50.13
2022-12-08T03:53:47.694Z,50.08
2022-12-08T03:58:41.606Z,50.01
2022-12-08T04:03:35.138Z,50.09
2022-12-08T04:08:29.117Z,50.10
2022-12-08T04:13:22.977Z,50.29
2022-12-08T04:18:17.500Z,50.06
2022-12-08T04:23:12.173Z,50.12
2022-12-08T04:28:06.674Z,49.88
2022-12-08T04:33:00.124Z,50.20
2022-12-08T04:37:52.994Z,49.92
2022-12-08T04:42:47.057Z,50.03
2022-12-08T04:47:40.094Z,49.98
2022-12-08T04:52:34.217Z,50.15
2022-12-08T04:57:27.414Z,50.07
2022-12-08T05:02:20.599Z,50.20
2022-12-08T05:07:14.617Z,50.15
2022-12-08T05:12:09.102Z,49.92
2022-12-08T05:17:09.097Z,50.14
2022-12-08T05:22:03.374Z,50.04
2022-12-08T05:26:56.862Z,50.11
2022-12-08T05:31:50.781Z,50.21
2022-12-08T05:36:44.225Z,50.12
2022-12-08T05:41:37.918Z,49.92
2022-12-08T05:46:32.099Z,50.06
2022-12-08T05:51:25.117Z,49.98
2022-12-08T05:56:19.465Z,50.16
2022-12-08T06:01:30.837Z,49.90
2022-12-08T06:06:24.772Z,50.13
2022-12-08T06:11:31.122Z,50.03
2022-12-08T06:16:26.726Z,50.14
2022-12-08T06:21:20.735Z,49.88
2022-12-08T06:26:15.666Z,50.05
2022-12-08T06:31:11.594Z,49.94
2022-12-08T06:36:06.006Z,50.08
2022-12-08T06:41:01.182Z,50.02
2022-12-08T06:45:54.892Z,50.02
2022-12-08T06:50:48.854Z,50.05
2022-12-08T06:55:59.315Z,49.78
2022-12-08T07:00:53.521Z,50.05
2022-12-08T07:05:46.058Z,49.91
2022-12-08T07:10:39.121Z,49.96
2022-12-08T07:15:32.020Z,49.75
2022-12-08T07:20:25.616Z,49.83
2022-12-08T07:25:19.549Z,50.03
2022-12-08T07:30:14.467Z,49.67
2022-12-08T07:35:08.530Z,49.68
2022-12-08T07:40:01.484Z,49.95
2022-12-08T07:44:55.127Z,49.79
2022-12-08T07:49:48.913Z,49.81
2022-12-08T07:54:41.842Z,50.03
2022-12-08T07:59:35.864Z,49.92
2022-12-08T08:04:29.422Z,49.86
2022-12-08T08:09:22.876Z,49.94
2022-12-08T08:14:16.262Z,49.87
2022-12-08T08:19:10.161Z,49.92
2022-12-08T08:24:03.719Z,49.98
2022-12-08T08:28:57.569Z,50.11
2022-12-08T08:33:51.122Z,50.17
2022-12-08T08:38:44.477Z,49.69
2022-12-08T08:43:38.837Z,50.20
2022-12-08T08:48:33.380Z,49.86
2022-12-08T08:53:27.792Z,49.97
2022-12-08T08:58:21.225Z,49.96
2022-12-08T09:03:14.415Z,49.84
2022-12-08T09:08:07.760Z,49.85
2022-12-08T09:13:00.530Z,50.04
2022-12-08T09:17:54.702Z,49.71
2022-12-08T09:22:47.836Z,49.87
2022-12-08T09:27:41.673Z,49.87
2022-12-08T09:32:35.779Z,49.86
2022-12-08T09:37:29.519Z,49.80
2022-12-08T09:42:43.722Z,49.96
2022-12-08T09:47:41.956Z,49.91
2022-12-08T09:52:42.397Z,49.97
2022-12-08T09:57:37.234Z,49.75
2022-12-08T10:02:31.217Z,49.74
2022-12-08T10:07:28.629Z,49.74
2022-12-08T10:12:34.718Z,50.02
2022-12-08T10:17:34.983Z,49.68
2022-12-08T10:22:35.315Z,49.66
2022-12-08T10:27:34.302Z,49.70
2022-12-08T10:32:35.198Z,49.85
2022-12-08T10:37:28.834Z,49.68
2022-12-08T10:42:23.122Z,49.77
2022-12-08T10:47:17.209Z,49.71
2022-12-08T10:52:24.079Z,49.77
2022-12-08T10:57:29.230Z,49.90
2022-12-08T11:02:23.155Z,49.90
2022-12-08T11:07:23.286Z,50.10
2022-12-08T11:12:22.673Z,49.89
2022-12-08T11:17:21.961Z,50.07
2022-12-08T11:22:25.360Z,50.03
2022-12-08T11:27:19.460Z,49.97
2022-12-08T11:32:14.560Z,49.97
2022-12-08T11:37:14.622Z,49.83
2022-12-08T11:42:13.936Z,49.91
2022-12-08T11:47:38.048Z,50.07
2022-12-08T11:52:36.041Z,49.72
2022-12-08T11:57:30.349Z,50.01
2022-12-08T12:02:26.393Z,50.02
2022-12-08T12:07:31.201Z,50.01
2022-12-08T12:12:39.854Z,49.89
2022-12-08T12:17:45.606Z,49.81
2022-12-08T12:22:39.633Z,49.89
2022-12-08T12:27:41.166Z,49.96
2022-12-08T12:32:59.168Z,49.94
2022-12-08T12:37:57.521Z,49.83
2022-12-08T12:42:56.946Z,50.01
2022-12-08T12:47:57.463Z,49.79
2022-12-08T12:52:51.054Z,50.08
2022-12-08T12:57:56.545Z,49.92
2022-12-08T13:02:52.917Z,49.91
2022-12-08T13:08:00.697Z,49.66
2022-12-08T13:13:17.222Z,50.02
2022-12-08T13:18:27.177Z,49.84
2022-12-08T13:23:37.486Z,49.88
2022-12-08T13:28:31.955Z,49.95
2022-12-08T13:33:41.482Z,49.74
2022-12-08T13:38:38.234Z,49.77
2022-12-08T13:44:31.204Z,49.75
2022-12-08T13:50:54.879Z,49.94
2022-12-08T13:56:05.419Z,49.91
2022-12-08T13:59:54.059Z,49.70
2022-12-08T14:05:17.306Z,49.87
2022-12-08T14:10:02.350Z,50.13
2022-12-08T14:15:05.253Z,49.99
2022-12-08T14:19:59.989Z,49.79
2022-12-08T14:24:55.732Z,49.83
2022-12-08T14:29:57.610Z,50.04
2022-12-08T14:35:01.461Z,50.09
2022-12-08T14:40:05.615Z,49.90
2022-12-08T14:45:03.634Z,50.01
2022-12-08T14:49:57.040Z,50.00
2022-12-08T14:54:51.637Z,50.04
2022-12-08T14:59:47.341Z,50.06
2022-12-08T15:04:43.807Z,49.97
2022-12-08T15:09:40.509Z,49.91
2022-12-08T15:14:37.645Z,49.69
2022-12-08T15:19:35.057Z,50.01
2022-12-08T15:24:30.798Z,49.78
2022-12-08T15:29:30.696Z,49.81
2022-12-08T15:34:23.323Z,49.77
2022-12-08T15:39:21.457Z,49.82
2022-12-08T15:44:14.776Z,49.82
2022-12-08T15:49:23.046Z,50.05
2022-12-08T15:54:17.022Z,49.87
2022-12-08T15:59:19.610Z,50.16
2022-12-08T16:09:34.370Z,49.99
2022-12-08T16:19:41.923Z,49.86
2022-12-08T16:24:35.795Z,50.05
2022-12-08T16:29:30.233Z,50.08
2022-12-08T16:34:25.145Z,49.98
2022-12-08T16:39:18.942Z,49.98
2022-12-08T16:44:12.420Z,49.90
2022-12-08T16:49:09.014Z,50.02
2022-12-08T16:54:03.182Z,49.84
2022-12-08T16:58:57.258Z,49.95
2022-12-08T17:04:22.364Z,50.10
2022-12-08T17:09:05.390Z,49.97
2022-12-08T17:13:59.650Z,50.07
2022-12-08T17:19:13.363Z,50.13
2022-12-08T17:24:08.041Z,50.12
2022-12-08T17:29:03.521Z,49.93
2022-12-08T17:33:59.465Z,49.89
2022-12-08T17:38:52.855Z,50.04
2022-12-08T17:43:46.742Z,50.09
2022-12-08T17:48:40.565Z,50.12
2022-12-08T17:53:37.527Z,50.25
2022-12-08T17:58:31.982Z,49.79
2022-12-08T18:03:25.713Z,50.07
2022-12-08T18:08:19.217Z,49.91
2022-12-08T18:13:13.244Z,50.01
2022-12-08T18:18:07.190Z,49.91
2022-12-08T18:23:00.815Z,50.24
2022-12-08T18:27:54.971Z,49.93
2022-12-08T18:32:50.724Z,50.13
2022-12-08T18:37:47.474Z,50.09
2022-12-08T18:42:40.954Z,49.88
2022-12-08T18:47:36.259Z,50.01
2022-12-08T18:52:32.313Z,50.09
2022-12-08T18:57:26.258Z,49.98
2022-12-08T19:02:20.757Z,49.87
2022-12-08T19:07:15.091Z,49.88
2022-12-08T19:12:09.344Z,50.00
2022-12-08T19:17:02.387Z,49.93
2022-12-08T19:21:56.356Z,50.08
2022-12-08T19:26:50.750Z,49.97
2022-12-08T19:31:44.674Z,49.98
2022-12-08T19:36:42.884Z,50.30
2022-12-08T19:41:56.114Z,50.26
2022-12-08T19:46:50.107Z,50.15
2022-12-08T19:51:44.040Z,50.00
2022-12-08T19:56:37.838Z,50.19
2022-12-08T20:01:31.839Z,50.04
2022-12-08T20:06:27.321Z,50.04
2022-12-08T20:11:21.823Z,49.71
2022-12-08T20:16:16.295Z,49.93
2022-12-08T20:21:11.746Z,50.02
2022-12-08T20:26:06.074Z,49.87
2022-12-08T20:30:59.501Z,50.06
2022-12-08T20:36:01.367Z,49.88
2022-12-08T20:40:55.539Z,49.96
2022-12-08T20:45:48.139Z,50.02
2022-12-08T20:50:41.800Z,49.92
2022-12-08T20:55:36.409Z,48.17
2022-12-08T21:00:29.647Z,46.52
2022-12-08T21:05:23.876Z,44.29
2022-12-08T21:10:18.012Z,43.19
2022-12-08T21:15:12.533Z,46.15
2022-12-08T21:20:08.666Z,47.90
2022-12-08T21:25:02.398Z,47.69
2022-12-08T21:29:55.868Z,47.45
2022-12-08T21:34:49.555Z,47.29
2022-12-08T21:39:43.224Z,47.60
2022-12-08T21:44:37.863Z,48.12
2022-12-08T21:49:31.140Z,48.35
2022-12-08T21:54:25.613Z,48.00
2022-12-08T21:59:21.253Z,48.52
2022-12-08T22:04:25.174Z,48.65
2022-12-08T22:09:20.534Z,48.61
2022-12-08T22:14:19.320Z,48.53
2022-12-08T22:19:19.582Z,48.64
2022-12-08T22:24:18.683Z,48.67
2022-12-08T22:29:14.859Z,48.96
2022-12-08T22:34:13.955Z,48.75
2022-12-08T22:39:15.956Z,49.14
2022-12-08T22:44:15.210Z,48.77
2022-12-08T22:49:11.210Z,48.78
2022-12-08T22:54:11.270Z,48.92
2022-12-08T22:59:11.902Z,48.74
2022-12-08T23:04:17.634Z,48.98
2022-12-08T23:09:14.564Z,49.10
2022-12-08T23:14:08.237Z,49.04
2022-12-08T23:19:03.684Z,49.32
2022-12-08T23:23:58.764Z,49.38
2022-12-08T23:28:53.297Z,49.48
2022-12-08T23:33:47.855Z,49.45
2022-12-08T23:38:41.107Z,49.21
2022-12-08T23:43:35.473Z,49.29
2022-12-08T23:48:33.512Z,49.41
2022-12-08T23:53:28.441Z,49.42
2022-12-08T23:58:22.236Z,49.61
